Time;durP1;ratioP1;P1;durP2;ratioP2;P2;SDS_P1;SDS_P2;PMS_P1;PMS_P2;Temp;Humidity;BMP_temperature;BMP_pressure;BME280_temperature;BME280_humidity;BME280_pressure;Samples;Min_cycle;Max_cycle;Signal;HPM_P1;HPM_P2
2022/04/07 00:01:31;;;;;;;7.15;3.63;;;384.70;1228.80;;;;;;5093597;28;20485;-63
2022/04/07 00:03:56;;;;;;;5.70;2.67;;;384.70;1228.80;;;;;;5093749;28;20024;-64
2022/04/07 00:06:22;;;;;;;6.65;2.75;;;384.70;1228.80;;;;;;5093818;28;20031;-63
2022/04/07 00:08:49;;;;;;;5.80;2.30;;;384.70;1228.80;;;;;;5093680;28;20032;-63
2022/04/07 00:11:15;;;;;;;8.60;3.40;;;384.70;1228.80;;;;;;5093882;28;20020;-63
2022/04/07 00:13:41;;;;;;;4.38;3.03;;;384.70;1228.80;;;;;;5093144;28;20446;-63
2022/04/07 00:16:08;;;;;;;11.18;3.67;;;384.70;1228.80;;;;;;5093703;28;20028;-63
2022/04/07 00:18:34;;;;;;;8.48;4.68;;;384.70;1228.80;;;;;;5093746;28;20416;-63
2022/04/07 00:21:02;;;;;;;7.75;4.22;;;384.60;1228.80;;;;;;5093346;28;20028;-62
2022/04/07 00:23:27;;;;;;;7.75;4.45;;;384.70;1228.80;;;;;;5093290;28;20024;-63
2022/04/07 00:25:53;;;;;;;7.93;4.05;;;384.70;1228.80;;;;;;5093522;28;20027;-63
2022/04/07 00:28:19;;;;;;;5.93;3.65;;;384.70;1228.80;;;;;;5093434;28;20462;-63
2022/04/07 00:30:44;;;;;;;4.78;3.35;;;384.70;1254.40;;;;;;5093521;28;20024;-63
2022/04/07 00:33:10;;;;;;;8.30;3.10;;;384.70;1254.40;;;;;;5096118;28;20044;-63
2022/04/07 00:35:38;;;;;;;10.60;2.80;;;384.70;1254.40;;;;;;5097310;28;20031;-63
2022/04/07 00:38:04;;;;;;;5.57;2.90;;;384.70;1228.80;;;;;;5097113;28;20032;-63
2022/04/07 00:40:30;;;;;;;5.97;3.03;;;384.70;1228.80;;;;;;5097005;28;20020;-63
2022/04/07 00:42:56;;;;;;;7.93;3.47;;;384.70;1228.80;;;;;;5097357;28;20025;-63
2022/04/07 00:45:23;;;;;;;7.18;3.30;;;384.60;1228.80;;;;;;5096754;28;20097;-63
2022/04/07 00:47:50;;;;;;;4.82;3.33;;;384.60;1228.80;;;;;;5096968;28;20372;-63
2022/04/07 00:50:18;;;;;;;5.63;2.83;;;384.60;1228.80;;;;;;5097547;28;20063;-63
2022/04/07 00:52:51;;;;;;;5.70;3.30;;;384.60;1228.80;;;;;;5096785;28;20028;-63
2022/04/07 00:55:19;;;;;;;5.95;2.80;;;384.50;1228.80;;;;;;5096926;28;20035;-63
2022/04/07 00:57:46;;;;;;;6.78;2.75;;;384.50;1228.80;;;;;;5096830;28;20020;-63
2022/04/07 01:00:13;;;;;;;4.22;3.08;;;384.50;1228.80;;;;;;5096836;28;20031;-63
2022/04/07 01:02:39;;;;;;;12.32;3.05;;;384.50;1254.40;;;;;;5096446;28;20052;-63
2022/04/07 01:05:07;;;;;;;7.03;3.35;;;384.50;1228.80;;;;;;5096795;28;20027;-63
2022/04/07 01:07:37;;;;;;;4.13;3.05;;;384.50;1228.80;;;;;;5096239;28;20423;-61
2022/04/07 01:10:08;;;;;;;8.32;3.40;;;384.50;1228.80;;;;;;5096520;28;20474;-63
2022/04/07 01:12:35;;;;;;;4.25;2.70;;;384.50;1228.80;;;;;;5096318;28;20035;-63
2022/04/07 01:15:03;;;;;;;8.82;4.47;;;384.50;1228.80;;;;;;5096581;28;20028;-61
2022/04/07 01:17:29;;;;;;;10.95;5.50;;;384.50;1228.80;;;;;;5096302;28;20461;-63
2022/04/07 01:19:55;;;;;;;8.93;3.53;;;384.40;1254.40;;;;;;5094831;28;20039;-62
2022/04/07 01:22:22;;;;;;;9.40;4.70;;;384.40;1254.40;;;;;;5096172;28;20039;-63
2022/04/07 01:24:48;;;;;;;11.65;5.07;;;384.40;1228.80;;;;;;5096455;28;20012;-62
2022/04/07 01:27:15;;;;;;;47.10;26.23;;;384.40;1228.80;;;;;;5096385;28;20491;-62
2022/04/07 01:29:42;;;;;;;42.55;28.40;;;384.50;1228.80;;;;;;5096320;28;20060;-63
2022/04/07 01:32:17;;;;;;;27.23;16.92;;;384.50;1228.80;;;;;;5096042;28;20040;-61
2022/04/07 01:34:44;;;;;;;31.90;13.73;;;384.60;1203.20;;;;;;5095914;28;20035;-62
2022/04/07 01:37:11;;;;;;;31.40;12.48;;;384.70;1177.60;;;;;;5096429;28;20047;-63
2022/04/07 01:39:39;;;;;;;31.17;20.45;;;384.70;1152.00;;;;;;5096213;28;20036;-63
2022/04/07 01:42:07;;;;;;;34.97;16.45;;;384.70;1152.00;;;;;;5096156;28;20040;-62
2022/04/07 01:44:36;;;;;;;18.00;6.78;;;384.70;1152.00;;;;;;5095534;28;20031;-62
2022/04/07 01:47:03;;;;;;;16.40;6.85;;;384.80;1152.00;;;;;;5096046;28;20408;-62
2022/04/07 01:49:33;;;;;;;13.75;5.75;;;384.80;1152.00;;;;;;5095992;28;20028;-63
2022/04/07 01:52:02;;;;;;;13.43;5.45;;;384.90;1126.40;;;;;;5095725;28;20035;-63
2022/04/07 01:54:28;;;;;;;14.32;5.43;;;384.90;1126.40;;;;;;5095743;28;20145;-62
2022/04/07 01:56:55;;;;;;;17.25;4.85;;;409.60;1126.40;;;;;;5095794;28;20028;-63
2022/04/07 01:59:22;;;;;;;53.38;5.70;;;409.60;1100.80;;;;;;5095618;28;20546;-63
2022/04/07 02:01:48;;;;;;;7.95;3.90;;;409.70;1100.80;;;;;;5095565;28;20510;-63
2022/04/07 02:04:13;;;;;;;6.75;3.75;;;409.70;1100.80;;;;;;5095765;28;20024;-62
2022/04/07 02:06:39;;;;;;;10.05;3.70;;;409.70;1100.80;;;;;;5095330;28;20047;-63
2022/04/07 02:09:05;;;;;;;8.13;3.35;;;409.60;1100.80;;;;;;5095463;28;20020;-63
2022/04/07 02:11:32;;;;;;;7.93;3.90;;;409.70;1100.80;;;;;;5095455;28;20095;-62
2022/04/07 02:13:58;;;;;;;6.57;3.13;;;409.70;1075.20;;;;;;5095438;28;20024;-63
2022/04/07 02:16:24;;;;;;;6.97;3.50;;;409.80;1075.20;;;;;;5095789;28;20026;-63
2022/04/07 02:18:50;;;;;;;9.20;3.53;;;409.80;1075.20;;;;;;5095058;28;20056;-63
2022/04/07 02:21:16;;;;;;;9.13;3.60;;;409.80;1075.20;;;;;;5095203;28;20024;-63
2022/04/07 02:23:44;;;;;;;5.78;3.20;;;409.80;1049.60;;;;;;5095301;28;20085;-63
2022/04/07 02:26:15;;;;;;;5.00;2.78;;;409.90;1075.20;;;;;;5094979;28;20047;-63
2022/04/07 02:28:42;;;;;;;5.22;3.38;;;409.90;1049.60;;;;;;5095251;28;20028;-63
2022/04/07 02:31:08;;;;;;;6.78;3.38;;;409.90;1049.60;;;;;;5094816;28;20020;-61
2022/04/07 02:33:35;;;;;;;16.15;10.93;;;409.80;1024.00;;;;;;5094728;28;20052;-62
2022/04/07 02:36:05;;;;;;;40.70;26.70;;;409.90;1024.00;;;;;;5095093;28;20023;-63
2022/04/07 02:38:31;;;;;;;8.80;5.30;;;409.90;1049.60;;;;;;5094730;28;20107;-64
2022/04/07 02:40:57;;;;;;;6.00;4.07;;;409.90;1024.00;;;;;;5094745;28;20048;-63
2022/04/07 02:43:23;;;;;;;15.40;10.63;;;410.00;1024.00;;;;;;5094903;28;20020;-64
2022/04/07 02:45:48;;;;;;;17.02;5.50;;;409.90;1075.20;;;;;;5094968;28;20028;-64
2022/04/07 02:48:14;;;;;;;30.83;6.47;;;409.90;1152.00;;;;;;5094731;28;20031;-63
2022/04/07 02:50:40;;;;;;;23.38;5.65;;;409.80;1254.40;;;;;;5094792;28;20485;-63
2022/04/07 02:53:05;;;;;;;24.02;5.13;;;409.80;1305.60;;;;;;5094548;28;20055;-62
2022/04/07 02:55:31;;;;;;;26.60;5.72;;;409.60;1356.80;;;;;;5093919;28;20463;-63
2022/04/07 02:58:00;;;;;;;26.67;5.55;;;409.60;1382.40;;;;;;5094793;28;20042;-63
2022/04/07 03:00:26;;;;;;;30.20;9.98;;;409.60;1408.00;;;;;;5094821;28;20028;-64
2022/04/07 03:02:52;;;;;;;30.90;10.30;;;384.80;1433.60;;;;;;5094644;28;20121;-62
2022/04/07 03:05:18;;;;;;;28.67;9.63;;;384.80;1433.60;;;;;;5094375;28;20487;-63
2022/04/07 03:07:43;;;;;;;43.55;8.90;;;384.70;1459.20;;;;;;5094477;28;20032;-63
2022/04/07 03:10:09;;;;;;;26.88;5.45;;;384.50;1484.80;;;;;;5095028;28;20031;-63
2022/04/07 03:12:35;;;;;;;24.38;5.00;;;384.60;1510.40;;;;;;5094301;28;20030;-63
2022/04/07 03:15:02;;;;;;;29.95;5.63;;;384.50;1536.00;;;;;;5094526;28;20144;-62
2022/04/07 03:17:28;;;;;;;22.85;4.50;;;384.40;1536.00;;;;;;5094272;28;20030;-63
2022/04/07 03:19:53;;;;;;;34.47;5.38;;;384.40;1561.60;;;;;;5094287;28;20028;-62
2022/04/07 03:22:19;;;;;;;22.02;4.35;;;384.40;1561.60;;;;;;5094315;28;20020;-63
2022/04/07 03:24:48;;;;;;;33.80;5.47;;;384.30;1587.20;;;;;;5092582;28;20036;-63
2022/04/07 03:27:14;;;;;;;21.10;4.80;;;384.20;1587.20;;;;;;5093597;28;20467;-63
2022/04/07 03:29:40;;;;;;;26.45;4.97;;;384.10;1612.80;;;;;;5094170;28;20069;-63
2022/04/07 03:32:06;;;;;;;29.52;4.75;;;384.10;1612.80;;;;;;5093543;28;20409;-62
2022/04/07 03:34:36;;;;;;;25.70;4.65;;;384.00;1638.40;;;;;;5093839;28;20043;-63
2022/04/07 03:37:04;;;;;;;23.77;4.25;;;384.00;1664.00;;;;;;5093955;28;20031;-63
2022/04/07 03:39:30;;;;;;;23.05;4.53;;;384.00;1664.00;;;;;;5094112;28;20028;-62
2022/04/07 03:41:56;;;;;;;20.45;3.58;;;359.30;1689.60;;;;;;5094023;28;20047;-61
2022/04/07 03:44:22;;;;;;;29.70;4.72;;;359.30;1689.60;;;;;;5094574;28;20059;-63
2022/04/07 03:46:47;;;;;;;32.95;4.97;;;359.20;1715.20;;;;;;5093969;28;20039;-63
2022/04/07 03:49:13;;;;;;;28.80;5.55;;;359.20;1715.20;;;;;;5094150;28;20020;-61
2022/04/07 03:51:39;;;;;;;28.58;5.57;;;359.20;1715.20;;;;;;5094011;28;20164;-63
2022/04/07 03:54:05;;;;;;;28.65;5.60;;;359.10;1740.80;;;;;;5093851;28;20054;-63
2022/04/07 03:56:30;;;;;;;24.20;6.22;;;359.10;1740.80;;;;;;5093895;28;20115;-63
2022/04/07 03:58:58;;;;;;;20.77;5.47;;;359.10;1740.80;;;;;;5092541;28;20097;-63
2022/04/07 04:01:25;;;;;;;26.63;4.38;;;359.10;1766.40;;;;;;5093843;28;20091;-63
2022/04/07 04:03:51;;;;;;;24.50;4.63;;;359.00;1766.40;;;;;;5093831;28;20422;-63
2022/04/07 04:06:16;;;;;;;24.05;4.32;;;359.00;1766.40;;;;;;5095167;28;20028;-61
2022/04/07 04:08:42;;;;;;;23.30;4.63;;;359.00;1766.40;;;;;;5097946;28;20024;-62
2022/04/07 04:11:08;;;;;;;19.48;3.75;;;359.00;1792.00;;;;;;5097739;28;20024;-62
2022/04/07 04:13:33;;;;;;;23.80;5.45;;;358.90;1792.00;;;;;;5097991;28;20035;-62
2022/04/07 04:16:01;;;;;;;22.23;4.18;;;358.90;1792.00;;;;;;5097778;28;20024;-62
2022/04/07 04:18:27;;;;;;;26.98;4.15;;;358.90;1792.00;;;;;;5097634;28;20024;-62
2022/04/07 04:20:52;;;;;;;26.48;6.25;;;358.90;1792.00;;;;;;5097615;28;20024;-62
2022/04/07 04:23:18;;;;;;;28.08;7.18;;;359.00;1792.00;;;;;;5097448;28;20456;-63
2022/04/07 04:25:44;;;;;;;32.97;9.63;;;358.90;1792.00;;;;;;5097372;28;20035;-62
2022/04/07 04:28:09;;;;;;;32.90;4.68;;;358.90;1817.60;;;;;;5097629;28;20027;-63
2022/04/07 04:30:35;;;;;;;31.88;8.07;;;358.90;1792.00;;;;;;5097494;28;20039;-63
2022/04/07 04:33:01;;;;;;;18.25;4.50;;;358.90;1792.00;;;;;;5097038;28;20044;-63
2022/04/07 04:35:27;;;;;;;39.38;13.05;;;358.90;1817.60;;;;;;5097161;28;20036;-62
2022/04/07 04:37:52;;;;;;;27.42;6.82;;;358.90;1817.60;;;;;;5097245;28;20054;-64
2022/04/07 04:40:18;;;;;;;19.98;5.22;;;358.90;1817.60;;;;;;5097388;28;20031;-64
2022/04/07 04:42:44;;;;;;;28.08;6.90;;;358.90;1817.60;;;;;;5097414;28;20028;-63
2022/04/07 04:45:10;;;;;;;44.85;9.27;;;358.90;1817.60;;;;;;5097183;28;20032;-63
2022/04/07 04:47:35;;;;;;;38.90;9.48;;;358.90;1843.20;;;;;;5097119;28;20036;-62
2022/04/07 04:50:07;;;;;;;30.00;10.48;;;358.90;1843.20;;;;;;5097056;28;20028;-64
2022/04/07 04:52:33;;;;;;;23.73;9.45;;;358.90;1843.20;;;;;;5097155;28;20107;-63
2022/04/07 04:54:58;;;;;;;29.77;8.15;;;358.80;1843.20;;;;;;5096987;28;20111;-62
2022/04/07 04:57:24;;;;;;;29.48;7.72;;;358.70;1868.80;;;;;;5096799;28;20045;-62
2022/04/07 04:59:50;;;;;;;32.13;11.18;;;358.80;1843.20;;;;;;5096825;28;20028;-63
2022/04/07 05:02:15;;;;;;;43.13;11.48;;;358.80;1868.80;;;;;;5097396;28;20024;-63
2022/04/07 05:04:41;;;;;;;29.42;9.07;;;358.80;1843.20;;;;;;5096749;28;20373;-63
2022/04/07 05:07:07;;;;;;;24.58;7.03;;;358.90;1817.60;;;;;;5096827;28;20031;-63
2022/04/07 05:09:34;;;;;;;28.50;8.43;;;358.90;1843.20;;;;;;5096490;28;20032;-64
2022/04/07 05:12:00;;;;;;;32.53;13.02;;;358.90;1817.60;;;;;;5096565;28;20051;-62
2022/04/07 05:14:26;;;;;;;29.80;11.00;;;359.00;1817.60;;;;;;5096660;28;20059;-62
2022/04/07 05:16:52;;;;;;;35.03;8.65;;;359.00;1817.60;;;;;;5096343;28;20109;-64
2022/04/07 05:19:17;;;;;;;34.67;10.10;;;358.90;1817.60;;;;;;5095781;28;20024;-63
2022/04/07 05:21:44;;;;;;;33.22;8.52;;;359.00;1817.60;;;;;;5096289;28;20027;-63
2022/04/07 05:24:10;;;;;;;31.67;8.68;;;359.00;1817.60;;;;;;5096272;28;20028;-63
2022/04/07 05:26:35;;;;;;;35.80;9.75;;;359.00;1792.00;;;;;;5096470;28;20104;-63
2022/04/07 05:29:01;;;;;;;36.22;10.63;;;359.00;1792.00;;;;;;5096272;28;20024;-64
2022/04/07 05:31:27;;;;;;;33.72;8.32;;;359.00;1792.00;;;;;;5096439;28;20028;-63
2022/04/07 05:33:53;;;;;;;36.58;9.25;;;359.00;1792.00;;;;;;5095754;28;20127;-56
2022/04/07 05:36:18;;;;;;;20.80;7.57;;;359.10;1792.00;;;;;;5096335;28;20103;-62
2022/04/07 05:38:44;;;;;;;35.67;9.10;;;359.10;1766.40;;;;;;5095986;28;20388;-62
2022/04/07 05:41:10;;;;;;;45.72;9.52;;;358.90;1766.40;;;;;;5095963;28;20078;-62
2022/04/07 05:43:35;;;;;;;38.35;9.57;;;358.90;1792.00;;;;;;5095885;28;20370;-61
2022/04/07 05:46:02;;;;;;;45.92;8.75;;;358.90;1792.00;;;;;;5095788;28;20028;-60
2022/04/07 05:48:27;;;;;;;22.02;7.75;;;359.00;1766.40;;;;;;5095768;28;20027;-61
2022/04/07 05:50:53;;;;;;;24.95;7.20;;;359.10;1766.40;;;;;;5093820;28;20028;-62
2022/04/07 05:53:19;;;;;;;30.00;10.05;;;359.00;1766.40;;;;;;5094017;28;20034;-62
2022/04/07 05:55:45;;;;;;;32.33;11.65;;;359.10;1740.80;;;;;;5095536;28;20377;-61
2022/04/07 05:58:10;;;;;;;43.88;20.83;;;359.10;1740.80;;;;;;5093864;28;20380;-62
2022/04/07 06:00:37;;;;;;;32.08;12.43;;;359.10;1740.80;;;;;;5093677;28;20036;-61
2022/04/07 06:03:03;;;;;;;35.60;13.00;;;359.20;1740.80;;;;;;5091243;28;20026;-57
2022/04/07 06:05:29;;;;;;;50.47;14.27;;;359.00;1715.20;;;;;;5095009;28;20035;-62
2022/04/07 06:08:00;;;;;;;48.75;14.65;;;359.10;1715.20;;;;;;5095620;28;20020;-62
2022/04/07 06:10:26;;;;;;;43.75;13.77;;;359.20;1715.20;;;;;;5095389;28;20024;-62
2022/04/07 06:12:52;;;;;;;29.48;10.88;;;359.20;1715.20;;;;;;5095644;28;20043;-62
2022/04/07 06:15:17;;;;;;;30.48;10.30;;;359.20;1715.20;;;;;;5094343;28;20056;-61
2022/04/07 06:17:44;;;;;;;34.58;11.13;;;359.20;1715.20;;;;;;5093917;28;20020;-62
2022/04/07 06:20:11;;;;;;;38.72;13.95;;;359.20;1689.60;;;;;;5093680;28;20099;-60
2022/04/07 06:22:38;;;;;;;40.90;11.07;;;359.30;1689.60;;;;;;5094228;28;20028;-57
2022/04/07 06:25:04;;;;;;;34.05;8.43;;;359.30;1715.20;;;;;;5093976;28;20071;-61
2022/04/07 06:27:48;;;;;;;20.52;6.70;;;359.30;1715.20;;;;;;5090869;28;20114;-62
2022/04/07 06:30:18;;;;;;;25.00;6.40;;;359.30;1715.20;;;;;;5095120;28;20117;-62
2022/04/07 06:32:46;;;;;;;28.77;5.90;;;359.30;1715.20;;;;;;5094688;28;20056;-63
2022/04/07 06:35:14;;;;;;;33.40;4.55;;;359.30;1715.20;;;;;;5094771;28;20032;-62
2022/04/07 06:37:56;;;;;;;20.67;3.97;;;359.30;1715.20;;;;;;5094940;28;20374;-64
2022/04/07 06:40:29;;;;;;;20.83;4.82;;;384.00;1689.60;;;;;;5094749;28;20032;-64
2022/04/07 06:42:58;;;;;;;14.57;4.13;;;359.10;1638.40;;;;;;5094591;28;20050;-62
2022/04/07 06:45:28;;;;;;;12.13;4.00;;;359.00;1664.00;;;;;;5094314;28;20028;-63
2022/04/07 06:47:55;;;;;;;14.68;4.32;;;358.80;1689.60;;;;;;5094125;28;20023;-68
2022/04/07 06:50:23;;;;;;;20.45;6.10;;;358.80;1689.60;;;;;;5094239;28;20527;-65
2022/04/07 06:52:49;;;;;;;18.17;5.10;;;358.70;1715.20;;;;;;5094702;28;20020;-64
2022/04/07 06:55:16;;;;;;;14.88;4.93;;;358.60;1740.80;;;;;;5094302;28;20039;-65
2022/04/07 06:57:57;;;;;;;13.05;5.60;;;358.60;1766.40;;;;;;5095044;28;20035;-64
2022/04/07 07:00:25;;;;;;;19.35;6.50;;;358.50;1740.80;;;;;;5094359;28;20434;-64
2022/04/07 07:02:52;;;;;;;17.35;6.13;;;333.70;1740.80;;;;;;5094493;28;20035;-61
2022/04/07 07:05:22;;;;;;;19.10;5.90;;;333.60;1792.00;;;;;;5094030;28;20020;-64
2022/04/07 07:07:49;;;;;;;16.08;5.85;;;333.60;1792.00;;;;;;5092766;28;20024;-64
2022/04/07 07:10:20;;;;;;;41.33;10.75;;;333.60;1817.60;;;;;;5092830;28;20024;-57
2022/04/07 07:12:46;;;;;;;65.28;33.22;;;333.60;1843.20;;;;;;5092809;28;20208;-66
2022/04/07 07:15:12;;;;;;;276.52;129.05;;;333.60;1843.20;;;;;;5094151;28;20032;-64
2022/04/07 07:17:39;;;;;;;323.77;164.60;;;333.70;1843.20;;;;;;5094042;28;20032;-65
2022/04/07 07:20:06;;;;;;;51.35;22.75;;;333.70;1843.20;;;;;;5094258;28;20051;-66
2022/04/07 07:22:31;;;;;;;66.43;39.38;;;333.60;1843.20;;;;;;5094001;28;20028;-59
2022/04/07 07:24:58;;;;;;;25.13;13.27;;;333.70;1868.80;;;;;;5093952;28;20032;-65
2022/04/07 07:27:24;;;;;;;37.55;17.15;;;333.70;1843.20;;;;;;5094110;28;20020;-61
2022/04/07 07:29:50;;;;;;;23.30;10.23;;;333.70;1868.80;;;;;;5094130;28;20372;-59
2022/04/07 07:32:16;;;;;;;21.02;9.00;;;333.70;1868.80;;;;;;5093757;28;20040;-59
2022/04/07 07:34:41;;;;;;;18.42;8.55;;;333.70;1868.80;;;;;;5093907;28;20132;-60
2022/04/07 07:37:07;;;;;;;21.35;9.18;;;333.70;1868.80;;;;;;5093670;28;20304;-60
2022/04/07 07:39:33;;;;;;;26.20;13.98;;;333.60;1868.80;;;;;;5093902;28;20054;-61
2022/04/07 07:41:58;;;;;;;43.20;23.40;;;333.50;1868.80;;;;;;5093997;28;20031;-61
2022/04/07 07:44:24;;;;;;;114.00;66.10;;;333.40;1894.40;;;;;;5093720;28;20051;-60
2022/04/07 07:46:50;;;;;;;73.93;51.20;;;333.40;1920.00;;;;;;5094040;28;20050;-61
2022/04/07 10:15:36;;;;;;;23.75;7.65;;;308.10;2304.00;;;;;;5111289;27;20385;-72
2022/04/07 10:18:12;;;;;;;23.70;9.55;;;332.80;2329.60;;;;;;5110503;28;20019;-68
2022/04/07 10:20:44;;;;;;;11.43;5.85;;;308.10;2304.00;;;;;;5110219;28;20073;-74
2022/04/07 10:23:25;;;;;;;14.43;5.93;;;308.00;2304.00;;;;;;5111433;28;20103;-71
2022/04/07 10:25:52;;;;;;;11.82;6.45;;;308.00;2304.00;;;;;;5111241;28;20020;-72
2022/04/07 10:28:22;;;;;;;26.23;11.40;;;308.10;2304.00;;;;;;5111260;28;20024;-69
2022/04/07 10:30:53;;;;;;;17.30;7.97;;;332.80;2329.60;;;;;;5111228;28;20046;-62
2022/04/07 10:33:30;;;;;;;17.13;7.60;;;332.90;2329.60;;;;;;5110877;28;20480;-60
2022/04/07 10:35:56;;;;;;;19.13;7.20;;;333.00;2304.00;;;;;;5110916;28;20031;-64
2022/04/07 10:38:42;;;;;;;20.23;9.88;;;333.00;2252.80;;;;;;5110900;28;20026;-68
2022/04/07 10:41:08;;;;;;;18.95;6.72;;;333.00;2304.00;;;;;;5110455;28;20076;-67
2022/04/07 10:43:40;;;;;;;11.85;5.93;;;333.10;2252.80;;;;;;5110245;28;20039;-72
2022/04/07 10:46:14;;;;;;;18.35;7.28;;;333.10;2227.20;;;;;;5110790;28;20020;-62
2022/04/07 10:48:50;;;;;;;15.40;5.22;;;333.20;2201.60;;;;;;5109484;28;20481;-60
2022/04/07 10:51:16;;;;;;;10.02;5.68;;;333.10;2201.60;;;;;;5092606;28;20042;-73
2022/04/07 10:54:02;;;;;;;10.65;6.07;;;333.10;2252.80;;;;;;5109225;28;20020;-73
2022/04/07 10:56:32;;;;;;;14.82;7.10;;;333.20;2252.80;;;;;;5105846;28;20485;-61
2022/04/07 10:59:17;;;;;;;12.85;6.15;;;333.20;2227.20;;;;;;5108700;28;20085;-66
2022/04/07 11:01:42;;;;;;;14.95;5.97;;;333.40;2227.20;;;;;;5108912;28;20425;-73
2022/04/07 11:04:20;;;;;;;12.15;6.15;;;333.40;2201.60;;;;;;5108960;28;20085;-61
2022/04/07 11:07:07;;;;;;;38.78;19.98;;;333.50;2150.40;;;;;;5108386;28;20031;-61
2022/04/07 11:09:43;;;;;;;230.45;142.38;;;333.50;2124.80;;;;;;5108183;28;20028;-61
2022/04/07 11:12:16;;;;;;;35.72;16.42;;;333.50;2124.80;;;;;;5088762;28;20024;-65
2022/04/07 11:14:44;;;;;;;15.00;5.67;;;333.60;2150.40;;;;;;5092963;28;20068;-66
2022/04/07 11:17:11;;;;;;;14.23;4.13;;;358.40;2022.40;;;;;;5109214;28;20452;-62
2022/04/07 11:20:07;;;;;;;12.70;4.68;;;333.70;2048.00;;;;;;5110406;28;20036;-81
2022/04/07 11:22:58;;;;;;;12.02;5.70;;;333.50;2073.60;;;;;;5031026;28;20437;-67
2022/04/07 11:25:25;;;;;;;44.08;5.43;;;333.70;2048.00;;;;;;5025162;28;20048;-71
2022/04/07 11:28:10;;;;;;;27.92;5.03;;;333.70;2073.60;;;;;;5034241;28;20052;-66
2022/04/07 11:30:50;;;;;;;28.83;5.57;;;358.40;2022.40;;;;;;5034161;28;20084;-65
2022/04/07 11:36:10;;;;;;;16.77;5.40;;;358.40;1996.80;;;;;;5033340;28;20379;-66
2022/04/07 11:38:43;;;;;;;25.90;7.72;;;358.50;1996.80;;;;;;5033760;28;20030;-64
2022/04/07 11:41:11;;;;;;;46.35;20.10;;;358.50;1971.20;;;;;;5033169;28;20034;-64
2022/04/07 11:43:43;;;;;;;69.75;26.17;;;358.50;1945.60;;;;;;5030173;28;20029;-64
2022/04/07 11:46:08;;;;;;;20.90;5.13;;;358.60;1971.20;;;;;;5015599;28;20025;-70
2022/04/07 11:48:39;;;;;;;17.20;4.57;;;358.50;1945.60;;;;;;5030768;28;20037;-65
2022/04/07 11:51:17;;;;;;;15.68;4.88;;;358.60;1945.60;;;;;;5033803;28;20041;-65
2022/04/07 11:53:51;;;;;;;12.05;3.40;;;358.70;1945.60;;;;;;5033698;28;20037;-71
2022/04/07 11:56:21;;;;;;;9.00;2.85;;;358.70;1945.60;;;;;;5033612;28;20040;-73
2022/04/07 11:58:58;;;;;;;11.98;3.30;;;358.70;1945.60;;;;;;5039411;28;20458;-66
2022/04/07 12:01:24;;;;;;;18.77;4.25;;;358.60;1920.00;;;;;;5074327;28;20111;-65
2022/04/07 12:03:55;;;;;;;9.80;2.70;;;358.70;1894.40;;;;;;5075581;28;20029;-70
2022/04/07 12:06:22;;;;;;;9.07;4.13;;;358.70;1868.80;;;;;;5080598;28;20028;-69
2022/04/07 12:08:49;;;;;;;13.75;4.78;;;358.70;1843.20;;;;;;5095600;28;20028;-71
2022/04/07 12:11:15;;;;;;;10.48;3.30;;;358.70;1792.00;;;;;;5092658;28;20047;-70
2022/04/07 12:13:41;;;;;;;6.82;3.30;;;358.70;1843.20;;;;;;5094149;28;20036;-69
2022/04/07 12:16:10;;;;;;;20.33;4.07;;;358.60;1843.20;;;;;;5094584;28;20024;-68
2022/04/07 12:18:35;;;;;;;9.52;3.65;;;358.70;1817.60;;;;;;5094434;28;20020;-71
2022/04/07 12:21:05;;;;;;;10.75;4.43;;;358.60;1894.40;;;;;;5095526;28;20347;-69
2022/04/07 12:23:31;;;;;;;7.63;3.20;;;358.60;1868.80;;;;;;5094141;28;20477;-68
2022/04/07 12:25:59;;;;;;;8.90;3.65;;;358.70;1868.80;;;;;;5095600;28;20111;-69
2022/04/07 12:28:40;;;;;;;8.85;4.10;;;358.80;1843.20;;;;;;5095545;28;20141;-70
2022/04/07 12:31:20;;;;;;;12.60;8.15;;;358.70;1868.80;;;;;;5093443;28;20024;-70
2022/04/07 12:33:47;;;;;;;95.65;47.22;;;358.70;1868.80;;;;;;5095850;28;20032;-70
2022/04/07 12:36:29;;;;;;;23.00;12.35;;;358.60;1894.40;;;;;;5095211;28;20016;-63
2022/04/07 12:38:59;;;;;;;13.18;6.90;;;358.60;1894.40;;;;;;5094596;28;20039;-68
2022/04/07 12:41:37;;;;;;;8.57;4.43;;;358.70;1920.00;;;;;;5095122;28;20114;-69
2022/04/07 12:44:04;;;;;;;8.85;4.80;;;358.70;1894.40;;;;;;5095165;28;20020;-71
2022/04/07 12:46:49;;;;;;;16.58;4.90;;;358.80;1894.40;;;;;;5095008;28;20123;-66
2022/04/07 12:49:32;;;;;;;13.60;6.00;;;359.00;1920.00;;;;;;5095012;28;20431;-66
2022/04/07 12:52:05;;;;;;;8.05;4.53;;;359.00;1868.80;;;;;;5089992;28;20032;-66
2022/04/07 12:54:31;;;;;;;12.60;5.90;;;359.10;1868.80;;;;;;5094926;28;20040;-67
2022/04/07 12:57:10;;;;;;;10.77;5.65;;;359.10;1868.80;;;;;;5093679;28;20390;-69
2022/04/07 12:59:57;;;;;;;11.18;5.78;;;359.20;1843.20;;;;;;5093502;28;20174;-70
2022/04/07 13:02:23;;;;;;;9.75;5.28;;;359.30;1843.20;;;;;;5094576;28;20028;-67
2022/04/07 13:04:51;;;;;;;17.23;8.43;;;359.20;1817.60;;;;;;5094765;28;20027;-67
2022/04/07 13:07:17;;;;;;;12.30;6.18;;;359.20;1843.20;;;;;;5095291;28;20016;-68
2022/04/07 13:09:44;;;;;;;6.80;4.00;;;359.20;1792.00;;;;;;5095036;28;20024;-68
2022/04/07 13:12:10;;;;;;;10.07;4.07;;;359.30;1792.00;;;;;;5094460;28;20370;-68
2022/04/07 13:14:36;;;;;;;12.13;5.10;;;359.30;1817.60;;;;;;5094318;28;20040;-68
2022/04/07 13:17:03;;;;;;;10.90;4.93;;;384.00;1792.00;;;;;;5094580;28;20020;-69
2022/04/07 13:19:29;;;;;;;11.73;4.43;;;384.00;1817.60;;;;;;5094306;28;20373;-67
2022/04/07 13:21:54;;;;;;;14.70;4.05;;;384.20;1766.40;;;;;;5094669;28;20024;-68
2022/04/07 13:24:20;;;;;;;10.02;5.47;;;384.20;1792.00;;;;;;5094643;28;20331;-69
2022/04/07 13:26:47;;;;;;;28.75;5.53;;;384.20;1792.00;;;;;;5094620;28;20038;-68
2022/04/07 13:29:13;;;;;;;45.47;7.78;;;384.30;1766.40;;;;;;5094354;28;20020;-69
2022/04/07 13:31:39;;;;;;;10.32;5.68;;;384.20;1792.00;;;;;;5094381;28;20072;-70
2022/04/07 13:34:06;;;;;;;8.63;4.70;;;384.20;1792.00;;;;;;5094224;28;20400;-69
2022/04/07 13:36:31;;;;;;;12.95;5.28;;;384.20;1766.40;;;;;;5094224;28;20024;-70
2022/04/07 13:38:57;;;;;;;10.10;4.40;;;384.30;1766.40;;;;;;5094171;28;20027;-69
2022/04/07 13:41:24;;;;;;;6.43;4.25;;;384.20;1766.40;;;;;;5094100;28;20400;-68
2022/04/07 13:43:50;;;;;;;9.65;4.82;;;384.20;1766.40;;;;;;5094058;28;20460;-70
2022/04/07 13:46:17;;;;;;;13.65;5.85;;;384.30;1766.40;;;;;;5093907;28;20027;-69
2022/04/07 13:48:43;;;;;;;12.70;5.07;;;384.30;1766.40;;;;;;5093545;28;20054;-68
2022/04/07 13:51:09;;;;;;;14.55;5.75;;;384.20;1766.40;;;;;;5093877;28;20017;-69
2022/04/07 13:53:34;;;;;;;11.48;4.50;;;384.20;1766.40;;;;;;5093911;28;20036;-69
2022/04/07 13:56:00;;;;;;;17.85;6.82;;;384.10;1740.80;;;;;;5093733;28;20020;-67
2022/04/07 13:58:26;;;;;;;7.47;5.22;;;384.20;1766.40;;;;;;5093999;28;20024;-68
2022/04/07 14:00:52;;;;;;;23.38;12.10;;;384.00;1766.40;;;;;;5094101;28;20055;-69
2022/04/07 14:03:18;;;;;;;204.43;124.68;;;384.20;1766.40;;;;;;5093711;28;20070;-65
2022/04/07 14:05:43;;;;;;;66.13;33.60;;;384.40;1766.40;;;;;;5093893;28;20148;-69
2022/04/07 14:08:09;;;;;;;82.72;40.60;;;384.40;1740.80;;;;;;5093825;28;20504;-65
2022/04/07 14:10:38;;;;;;;53.08;24.98;;;384.60;1740.80;;;;;;5093548;28;20032;-66
2022/04/07 14:13:05;;;;;;;187.85;101.43;;;384.60;1715.20;;;;;;5093328;28;20028;-68
2022/04/07 14:15:31;;;;;;;135.95;66.55;;;384.80;1715.20;;;;;;5093551;28;20056;-68
2022/04/07 14:17:58;;;;;;;17.92;8.98;;;409.60;1740.80;;;;;;5093390;28;20043;-65
2022/04/07 14:20:25;;;;;;;90.35;44.10;;;409.80;1715.20;;;;;;5093912;28;20085;-69
2022/04/07 14:22:51;;;;;;;136.13;79.85;;;409.80;1715.20;;;;;;5093854;28;20347;-65
2022/04/07 14:25:17;;;;;;;56.70;32.22;;;409.80;1689.60;;;;;;5093464;28;20473;-69
2022/04/07 14:27:42;;;;;;;35.10;16.02;;;409.70;1715.20;;;;;;5091834;28;20039;-67
2022/04/07 14:30:09;;;;;;;79.07;43.00;;;409.60;1715.20;;;;;;5093649;28;20028;-69
2022/04/07 14:32:35;;;;;;;61.20;37.58;;;409.60;1715.20;;;;;;5093774;28;20028;-65
2022/04/07 14:35:01;;;;;;;48.78;32.85;;;384.90;1715.20;;;;;;5093845;28;20381;-66
2022/04/07 14:37:27;;;;;;;35.90;22.92;;;384.80;1715.20;;;;;;5092140;28;20036;-67
2022/04/07 14:39:53;;;;;;;120.97;75.45;;;384.80;1715.20;;;;;;5093241;28;20397;-66
2022/04/07 14:42:18;;;;;;;32.80;20.80;;;384.90;1689.60;;;;;;5092743;28;20104;-65